Time;durP1;ratioP1;P1;durP2;ratioP2;P2;SDS_P1;SDS_P2;PMS_P1;PMS_P2;Temp;Humidity;BMP_temperature;BMP_pressure;BME280_temperature;BME280_humidity;BME280_pressure;Samples;Min_cycle;Max_cycle;Signal;HPM_P1;HPM_P2
2023/01/05 00:01:49;;;;;;;32.30;19.00;;;;;;;-0.33;91.55;96079.03;1795570;80;21022;-68
2023/01/05 00:04:16;;;;;;;26.83;13.40;;;;;;;-0.28;91.80;96071.88;1795162;80;21042;-68
2023/01/05 00:06:43;;;;;;;31.80;17.47;;;;;;;-0.24;91.68;96075.43;1795190;80;21010;-68
2023/01/05 00:09:14;;;;;;;37.40;20.43;;;;;;;-0.19;91.87;96066.50;1795084;80;21130;-69
2023/01/05 00:22:54;;;;;;;23.10;13.10;;;;;;;-0.12;91.22;96058.08;1795175;80;21033;-70
2023/01/05 00:25:27;;;;;;;23.73;12.13;;;;;;;-0.08;91.58;96063.80;1795414;80;21564;-70
2023/01/05 00:27:56;;;;;;;15.37;9.40;;;;;;;-0.06;91.72;96065.60;1794711;80;21018;-70
2023/01/05 00:30:31;;;;;;;17.47;10.03;;;;;;;0.00;91.69;96057.14;1795601;80;20991;-68
2023/01/05 00:32:58;;;;;;;15.23;8.80;;;;;;;0.03;91.48;96046.85;1795518;80;21069;-68
2023/01/05 00:35:24;;;;;;;22.60;11.17;;;;;;;0.04;91.69;96048.59;1795459;80;21429;-68
2023/01/05 00:37:51;;;;;;;15.33;9.67;;;;;;;0.06;91.83;96037.85;1795154;80;20998;-68
2023/01/05 00:40:21;;;;;;;20.37;11.33;;;;;;;0.09;91.45;96030.58;1795357;80;21033;-69
2023/01/05 00:42:48;;;;;;;20.47;13.03;;;;;;;0.09;91.72;96020.20;1795220;80;21007;-68
2023/01/05 00:45:17;;;;;;;25.37;15.70;;;;;;;0.08;91.65;96029.70;1795449;80;21010;-68
2023/01/05 00:47:44;;;;;;;25.37;13.47;;;;;;;0.06;91.69;96037.85;1795496;80;21018;-69
2023/01/05 00:50:15;;;;;;;24.93;14.53;;;;;;;0.08;91.37;96046.99;1795443;80;21019;-68
2023/01/05 00:52:42;;;;;;;23.00;12.80;;;;;;;0.12;91.54;96034.55;1795354;80;21026;-68
2023/01/05 00:55:09;;;;;;;25.97;15.00;;;;;;;0.11;91.12;96036.27;1795606;80;20991;-68
2023/01/05 00:57:36;;;;;;;16.37;8.60;;;;;;;0.15;91.46;96044.61;1795582;80;20970;-68
2023/01/05 01:00:11;;;;;;;16.63;9.27;;;;;;;0.22;91.61;96041.75;1795115;80;20975;-68
2023/01/05 01:02:37;;;;;;;11.70;7.13;;;;;;;0.27;91.47;96033.68;1764662;80;20990;-69
2023/01/05 01:05:05;;;;;;;11.30;6.20;;;;;;;0.32;91.54;96032.52;1795326;80;21051;-69
2023/01/05 01:07:32;;;;;;;13.20;7.70;;;;;;;0.35;91.48;96025.71;1795557;80;20991;-69
2023/01/05 01:09:58;;;;;;;12.23;6.43;;;;;;;0.42;91.46;96025.44;1795510;80;21007;-69
2023/01/05 01:12:25;;;;;;;9.57;6.00;;;;;;;0.45;91.50;96019.45;1795579;80;21033;-69
2023/01/05 01:14:52;;;;;;;11.07;6.60;;;;;;;0.47;91.47;96002.20;1795133;80;21013;-69
2023/01/05 01:17:18;;;;;;;9.10;5.70;;;;;;;0.50;91.37;96012.66;1795355;80;21067;-69
2023/01/05 01:19:45;;;;;;;8.20;4.90;;;;;;;0.53;91.49;96000.66;1795142;80;21010;-69
2023/01/05 01:22:13;;;;;;;8.73;5.63;;;;;;;0.56;91.26;96003.33;1795333;80;21042;-69
2023/01/05 01:24:39;;;;;;;9.13;4.97;;;;;;;0.60;91.37;95984.80;1795425;80;21097;-69
2023/01/05 01:27:06;;;;;;;11.97;6.73;;;;;;;0.62;91.32;95993.09;1795502;80;21457;-69
2023/01/05 01:29:33;;;;;;;19.87;9.07;;;;;;;0.61;91.71;95987.88;1795762;80;20995;-69
2023/01/05 01:32:00;;;;;;;9.27;5.07;;;;;;;0.62;91.41;95984.43;1795491;80;20986;-69
2023/01/05 01:34:27;;;;;;;6.50;3.67;;;;;;;0.65;91.32;95967.63;1795528;80;20983;-68
2023/01/05 01:36:55;;;;;;;10.07;5.10;;;;;;;0.67;91.83;95967.67;1795381;80;20955;-68
2023/01/05 01:39:24;;;;;;;7.97;4.23;;;;;;;0.70;91.93;95955.63;1795472;80;21508;-68
2023/01/05 01:41:52;;;;;;;4.30;2.70;;;;;;;0.78;92.25;95956.72;1794797;80;20983;-68
2023/01/05 01:44:47;;;;;;;7.40;4.50;;;;;;;0.86;92.60;95951.29;1795532;80;21059;-68
2023/01/05 01:47:34;;;;;;;7.10;4.33;;;;;;;0.91;92.95;95939.72;1795517;80;20963;-70
2023/01/05 01:50:09;;;;;;;11.63;6.67;;;;;;;0.93;92.34;95925.02;1795339;80;21030;-68
2023/01/05 01:52:38;;;;;;;8.90;5.13;;;;;;;0.92;92.07;95910.70;1795465;80;21041;-68
2023/01/05 01:55:07;;;;;;;4.33;2.23;;;;;;;0.94;92.05;95899.52;1795150;80;21046;-68
2023/01/05 01:57:35;;;;;;;0.83;0.77;;;;;;;1.01;92.35;95883.22;1795525;80;21025;-68
2023/01/05 02:00:07;;;;;;;2.53;0.63;;;;;;;1.11;93.15;95886.02;1795263;80;21015;-68
2023/01/05 02:02:35;;;;;;;0.70;0.50;;;;;;;1.20;93.12;95863.70;1795192;80;20987;-68
2023/01/05 02:05:07;;;;;;;2.67;0.50;;;;;;;1.33;93.22;95858.34;1795150;80;20991;-68
2023/01/05 02:07:42;;;;;;;0.83;0.70;;;;;;;1.47;93.33;95865.16;1795399;80;21476;-67
2023/01/05 02:10:09;;;;;;;0.40;0.30;;;;;;;1.55;93.60;95858.38;1793301;80;21512;-67
2023/01/05 02:13:06;;;;;;;0.30;0.30;;;;;;;1.58;93.28;95851.92;1787373;80;21043;-68
2023/01/05 02:15:59;;;;;;;0.30;0.30;;;;;;;1.62;93.28;95848.55;1711789;80;21096;-68
2023/01/05 02:19:09;;;;;;;0.85;0.65;;;;;;;1.55;93.58;95837.57;1787174;80;21438;-68
2023/01/05 02:22:02;;;;;;;2.93;1.37;;;;;;;1.57;93.96;95837.19;1787205;80;21513;-68
2023/01/05 02:25:21;;;;;;;2.65;0.98;;;;;;;1.62;93.64;95830.78;1786091;80;20999;-68
2023/01/05 02:28:11;;;;;;;3.03;2.13;;;;;;;1.66;93.57;95817.87;1787223;80;21066;-70
2023/01/05 02:31:09;;;;;;;3.23;2.60;;;;;;;1.73;93.99;95817.11;1701999;80;21006;-70
2023/01/05 02:33:53;;;;;;;5.97;3.80;;;;;;;1.76;93.59;95805.02;1787262;80;21537;-68
2023/01/05 02:36:34;;;;;;;4.73;2.87;;;;;;;1.73;93.41;95800.20;1786467;80;20971;-68
2023/01/05 02:39:11;;;;;;;6.13;3.07;;;;;;;1.84;93.90;95799.52;1786976;80;21034;-68
2023/01/05 02:42:00;;;;;;;5.43;3.13;;;;;;;2.02;94.11;95802.47;1787372;80;20983;-68
2023/01/05 02:44:31;;;;;;;4.30;2.43;;;;;;;2.14;93.91;95796.58;1787442;80;21474;-68
2023/01/05 02:47:29;;;;;;;2.00;1.17;;;;;;;2.24;93.71;95810.64;1780196;80;20986;-68
2023/01/05 02:50:18;;;;;;;4.13;2.60;;;;;;;2.30;93.72;95801.64;1786559;80;21010;-68
2023/01/05 02:53:14;;;;;;;1.83;1.40;;;;;;;2.35;93.69;95795.66;1787024;80;20986;-68
2023/01/05 02:56:00;;;;;;;1.63;1.20;;;;;;;2.42;93.53;95797.04;1787074;80;21524;-68
2023/01/05 02:58:40;;;;;;;6.37;3.60;;;;;;;2.46;93.44;95794.52;1786973;80;21038;-68
2023/01/05 03:01:25;;;;;;;4.70;3.23;;;;;;;2.39;92.46;95797.87;1787199;80;21461;-68
2023/01/05 03:03:58;;;;;;;8.97;4.43;;;;;;;2.31;92.37;95799.05;1787270;80;21003;-68
2023/01/05 03:06:32;;;;;;;7.00;4.23;;;;;;;2.30;92.48;95796.01;1775207;80;21528;-68
2023/01/05 03:09:03;;;;;;;5.53;3.30;;;;;;;2.31;92.33;95800.78;1786942;80;21469;-68
2023/01/05 03:14:38;;;;;;;1.73;1.27;;;;;;;2.31;93.05;95803.39;1795364;80;21041;-68
2023/01/05 03:17:09;;;;;;;2.90;1.93;;;;;;;2.32;93.10;95801.25;1795540;80;21441;-68
2023/01/05 03:19:40;;;;;;;2.75;1.50;;;;;;;2.35;93.23;95807.80;1795089;80;21038;-68
2023/01/05 03:36:26;;;;;;;2.87;1.70;;;;;;;2.50;93.04;95792.42;1795118;80;21549;-69
2023/01/05 03:38:57;;;;;;;43.53;18.90;;;;;;;2.57;93.63;95788.16;1795484;80;21001;-69
2023/01/05 03:41:26;;;;;;;41.33;16.20;;;;;;;2.62;93.57;95792.14;1795387;80;20998;-69
2023/01/05 03:43:53;;;;;;;31.40;14.40;;;;;;;2.62;93.30;95780.02;1795497;80;21047;-69
2023/01/05 03:46:21;;;;;;;11.97;6.60;;;;;;;2.63;92.94;95765.27;1795341;80;21878;-68
2023/01/05 03:48:48;;;;;;;6.53;3.60;;;;;;;2.66;92.99;95749.67;1795257;80;21006;-69
2023/01/05 03:51:16;;;;;;;6.60;3.57;;;;;;;2.83;93.76;95749.91;1795615;80;21529;-69
2023/01/05 03:53:43;;;;;;;4.37;2.40;;;;;;;2.99;93.54;95742.73;1795363;80;20986;-69
2023/01/05 03:56:10;;;;;;;3.20;1.50;;;;;;;3.08;93.21;95715.92;1795257;80;21041;-69
2023/01/05 03:58:37;;;;;;;2.23;1.20;;;;;;;3.26;93.71;95710.91;1795321;80;20983;-69
2023/01/05 04:01:05;;;;;;;10.77;4.80;;;;;;;3.45;93.20;95706.36;1795078;80;21054;-69
2023/01/05 04:03:31;;;;;;;9.37;3.73;;;;;;;3.55;92.90;95689.47;1795381;80;21026;-69
2023/01/05 04:05:59;;;;;;;5.47;2.77;;;;;;;3.61;92.56;95683.90;1795299;80;20995;-69
2023/01/05 04:08:28;;;;;;;2.63;1.60;;;;;;;3.65;92.13;95680.88;1795155;80;21026;-69
2023/01/05 04:10:55;;;;;;;1.40;0.93;;;;;;;3.67;91.89;95685.69;1795024;80;21074;-69
2023/01/05 04:13:22;;;;;;;2.10;1.50;;;;;;;3.66;91.83;95679.59;1795466;80;20970;-69
2023/01/05 04:15:49;;;;;;;2.70;1.50;;;;;;;3.67;91.91;95680.47;1795246;80;21067;-69
2023/01/05 04:18:15;;;;;;;3.67;1.37;;;;;;;3.66;91.71;95674.38;1795538;80;20990;-69
2023/01/05 04:20:42;;;;;;;2.37;1.57;;;;;;;3.63;91.53;95668.27;1795497;80;21445;-69
2023/01/05 04:23:09;;;;;;;1.67;1.20;;;;;;;3.64;91.73;95670.00;1795297;80;20994;-69
2023/01/05 04:25:36;;;;;;;2.73;1.30;;;;;;;3.67;91.98;95670.03;1795614;80;20991;-69
2023/01/05 04:28:04;;;;;;;2.47;1.37;;;;;;;3.79;92.16;95669.27;1793845;80;21011;-68
2023/01/05 04:30:32;;;;;;;1.90;1.43;;;;;;;3.85;91.98;95668.01;1795459;80;21011;-68
2023/01/05 04:32:59;;;;;;;1.90;1.30;;;;;;;3.94;91.73;95667.23;1795630;80;21022;-68
2023/01/05 04:35:25;;;;;;;3.63;1.97;;;;;;;3.99;91.68;95670.31;1795243;80;20991;-68
2023/01/05 04:37:52;;;;;;;5.07;2.60;;;;;;;4.08;91.63;95658.64;1795123;80;20979;-68
2023/01/05 04:40:19;;;;;;;5.00;2.37;;;;;;;4.14;91.40;95643.88;1795157;80;21071;-68
2023/01/05 04:42:48;;;;;;;9.93;3.53;;;;;;;4.16;91.37;95633.89;1795286;80;21054;-69
2023/01/05 04:45:15;;;;;;;17.00;7.80;;;;;;;4.17;91.24;95618.65;1795236;80;21019;-69
2023/01/05 04:47:42;;;;;;;9.07;4.37;;;;;;;4.19;91.15;95618.67;1795547;80;21014;-69
2023/01/05 04:50:09;;;;;;;10.87;4.30;;;;;;;4.16;91.09;95601.25;1795661;80;21038;-69
2023/01/05 04:52:37;;;;;;;6.77;3.47;;;;;;;4.21;91.32;95598.64;1795735;80;20998;-69
2023/01/05 04:55:05;;;;;;;3.87;2.07;;;;;;;4.22;91.12;95592.12;1795477;80;21001;-69
2023/01/05 04:57:32;;;;;;;3.93;2.10;;;;;;;4.19;90.86;95592.12;1795259;80;21003;-69
2023/01/05 04:59:59;;;;;;;29.67;14.10;;;;;;;4.18;90.65;95592.97;1795745;80;20970;-69
2023/01/05 05:02:27;;;;;;;4.20;2.80;;;;;;;4.24;90.22;95604.77;1795870;80;20986;-69
2023/01/05 05:04:55;;;;;;;4.20;1.93;;;;;;;4.32;90.46;95608.73;1795354;80;21520;-69
2023/01/05 05:07:22;;;;;;;2.37;1.50;;;;;;;4.54;88.65;95595.36;1795513;80;21499;-69
2023/01/05 05:09:49;;;;;;;2.33;1.60;;;;;;;4.82;88.52;95587.19;1795259;80;20999;-69
2023/01/05 05:12:21;;;;;;;1.73;1.60;;;;;;;5.03;88.35;95597.27;1788727;80;21150;-68
2023/01/05 05:14:48;;;;;;;3.00;1.80;;;;;;;5.13;87.01;95601.22;1785769;80;21494;-68
2023/01/05 05:17:16;;;;;;;2.37;2.10;;;;;;;5.32;85.56;95591.68;1787269;80;21465;-69
2023/01/05 05:19:43;;;;;;;2.73;2.07;;;;;;;5.48;84.00;95597.80;1787545;80;21429;-69
2023/01/05 05:22:10;;;;;;;3.73;2.40;;;;;;;5.58;85.29;95602.17;1786877;80;21547;-68
2023/01/05 05:24:37;;;;;;;2.60;2.00;;;;;;;5.73;82.38;95600.00;1786690;80;20975;-69
2023/01/05 05:27:04;;;;;;;3.20;2.10;;;;;;;5.89;82.34;95584.28;1754075;80;21003;-69
2023/01/05 05:29:31;;;;;;;3.47;2.13;;;;;;;5.91;82.47;95575.99;1787018;80;21121;-69
2023/01/05 05:43:25;;;;;;;3.25;2.27;;;;;;;6.63;79.74;95535.24;1857911;77;22946;-68
2023/01/05 05:45:52;;;;;;;3.22;2.45;;;;;;;6.43;80.29;95528.32;1826477;78;21026;-69
2023/01/05 05:48:18;;;;;;;2.42;1.70;;;;;;;6.30;81.08;95517.45;1826465;78;21010;-68
2023/01/05 05:50:45;;;;;;;2.30;1.73;;;;;;;6.24;80.09;95505.67;1827018;78;21034;-68
2023/01/05 05:53:12;;;;;;;2.52;1.60;;;;;;;6.23;80.04;95500.88;1826424;78;21010;-69
2023/01/05 10:13:59;;;;;;;1.57;1.10;;;;;;;10.79;68.47;95299.27;1832109;78;20980;-69
2023/01/05 10:16:27;;;;;;;1.40;1.15;;;;;;;10.70;69.45;95306.92;1832465;78;20992;-68
2023/01/05 10:18:55;;;;;;;2.50;1.05;;;;;;;10.55;68.49;95304.66;1831933;78;21019;-69
2023/01/05 10:21:53;;;;;;;2.62;1.70;;;;;;;10.94;68.31;95285.69;1832531;78;21564;-69
2023/01/05 10:24:30;;;;;;;2.60;1.20;;;;;;;11.23;64.88;95263.80;1832310;78;20956;-69
2023/01/05 10:27:14;;;;;;;1.92;1.25;;;;;;;11.21;65.21;95250.22;1780522;78;21074;-69
2023/01/05 10:29:43;;;;;;;;;;;;;;;11.15;64.59;95275.48;1835426;78;21512;-67
2023/01/05 10:32:50;;;;;;;1.07;0.98;;;;;;;11.28;63.01;95273.38;1831872;78;20089;-66
2023/01/05 10:35:37;;;;;;;0.82;0.82;;;;;;;10.97;62.49;95269.77;1832353;78;20949;-68
2023/01/05 10:38:57;;;;;;;3.05;1.60;;;;;;;10.97;62.49;95269.77;1832516;78;21043;-68
2023/01/05 10:41:35;;;;;;;1.10;1.00;;;;;;;10.85;63.48;95267.89;1794129;80;20966;-68
2023/01/05 10:44:46;;;;;;;1.40;1.02;;;;;;;10.65;63.18;95282.88;1831671;78;21083;-68
2023/01/05 10:47:14;;;;;;;1.20;0.90;;;;;;;10.46;64.55;95271.88;1832300;78;21003;-68
2023/01/05 10:49:43;;;;;;;0.72;0.70;;;;;;;10.30;64.85;95285.88;1832316;78;21008;-68
2023/01/05 10:52:14;;;;;;;1.20;1.10;;;;;;;10.13;65.09;95282.25;1800605;78;20995;-68
2023/01/05 10:55:00;;;;;;;1.30;1.00;;;;;;;10.00;65.83;95258.39;1831228;78;21043;-68
2023/01/05 10:57:37;;;;;;;1.75;1.20;;;;;;;9.90;66.18;95264.30;1829289;78;21039;-69
2023/01/05 11:00:22;;;;;;;2.90;1.20;;;;;;;9.90;67.41;95271.78;1832177;78;21027;-68
2023/01/05 11:02:59;;;;;;;1.00;0.90;;;;;;;9.89;67.77;95270.48;1832265;78;21004;-69
2023/01/05 11:05:36;;;;;;;3.40;1.10;;;;;;;9.78;69.50;95268.51;1832108;78;21044;-68
2023/01/05 11:08:20;;;;;;;2.15;1.17;;;;;;;9.69;70.20;95262.53;1832264;78;21031;-68
2023/01/05 11:10:59;;;;;;;1.87;0.90;;;;;;;9.54;69.57;95261.53;1835016;78;21063;-68
2023/01/05 11:13:36;;;;;;;2.55;1.00;;;;;;;9.42;70.69;95256.05;1834846;78;21052;-69
2023/01/05 11:16:15;;;;;;;0.90;0.65;;;;;;;9.20;72.33;95246.40;1835532;78;20984;-68
2023/01/05 11:19:09;;;;;;;1.80;0.98;;;;;;;9.10;72.35;95256.23;1835195;78;21512;-69
2023/01/05 11:21:43;;;;;;;2.65;1.15;;;;;;;9.02;72.95;95259.45;1808321;78;21019;-68
2023/01/05 11:24:30;;;;;;;13.55;9.38;;;;;;;8.88;73.55;95269.34;1835155;78;21012;-68
2023/01/05 11:27:05;;;;;;;1.50;1.40;;;;;;;8.81;74.40;95264.62;1828601;78;20972;-68
2023/01/05 11:29:32;;;;;;;4.97;3.15;;;;;;;8.65;75.37;95244.75;1820439;78;20980;-68
2023/01/05 11:32:05;;;;;;;1.32;1.20;;;;;;;8.61;75.38;95246.99;1835472;78;20971;-68
2023/01/05 11:34:47;;;;;;;2.00;1.52;;;;;;;8.52;76.16;95246.71;1835350;78;21030;-69
2023/01/05 11:37:27;;;;;;;1.90;1.30;;;;;;;8.51;76.03;95253.30;1835240;78;21023;-68
2023/01/05 11:39:58;;;;;;;5.20;2.83;;;;;;;8.44;76.71;95257.77;1835177;78;21027;-68
2023/01/05 11:42:30;;;;;;;2.98;1.50;;;;;;;8.36;77.46;95255.23;1834729;78;21055;-68
2023/01/05 11:45:03;;;;;;;4.40;2.52;;;;;;;8.28;78.62;95240.48;1832451;78;21035;-69
2023/01/05 11:47:44;;;;;;;2.80;1.52;;;;;;;8.22;78.17;95253.28;1835343;78;20987;-68
2023/01/05 11:50:23;;;;;;;1.15;1.05;;;;;;;8.19;78.18;95240.20;1835083;78;21042;-68
2023/01/05 11:52:59;;;;;;;2.42;1.30;;;;;;;8.09;79.27;95256.95;1763137;81;20983;-69
2023/01/05 11:55:36;;;;;;;3.25;1.80;;;;;;;7.98;79.57;95238.27;1768013;81;20998;-69
2023/01/05 11:58:25;;;;;;;3.85;2.83;;;;;;;7.89;80.14;95228.37;1795921;80;21029;-69
2023/01/05 12:01:35;;;;;;;2.20;1.90;;;;;;;7.81;80.60;95240.27;1795776;80;20991;-69
2023/01/05 12:04:07;;;;;;;3.08;1.75;;;;;;;7.72;82.25;95236.02;1795586;80;21062;-69
2023/01/05 12:06:56;;;;;;;2.37;1.30;;;;;;;7.65;82.16;95246.17;1795829;80;20983;-69
2023/01/05 12:09:30;;;;;;;1.70;1.02;;;;;;;7.62;82.28;95241.42;1794845;80;21074;-69
2023/01/05 12:12:14;;;;;;;2.75;1.62;;;;;;;7.58;83.02;95243.19;1795455;80;21003;-69
2023/01/05 12:15:01;;;;;;;5.22;4.05;;;;;;;7.57;83.29;95241.02;1795808;80;20999;-69
2023/01/05 12:17:39;;;;;;;2.40;2.10;;;;;;;7.55;83.53;95241.92;1794947;80;21049;-69
2023/01/05 12:20:31;;;;;;;5.28;1.75;;;;;;;7.53;83.78;95237.13;1794779;80;21006;-69
2023/01/05 12:23:26;;;;;;;1.95;1.80;;;;;;;7.50;84.03;95231.93;1795602;80;21586;-68
2023/01/05 12:26:20;;;;;;;3.58;1.60;;;;;;;7.47;84.70;95239.40;1795726;80;21033;-69
2023/01/05 12:29:26;;;;;;;2.45;1.60;;;;;;;7.44;85.19;95251.70;1795223;80;21070;-69
2023/01/05 12:32:16;;;;;;;1.92;1.60;;;;;;;7.40;85.31;95257.87;1795385;80;21013;-69
2023/01/05 12:34:54;;;;;;;1.87;1.35;;;;;;;7.39;84.75;95260.94;1793584;80;21038;-69
2023/01/05 12:37:49;;;;;;;1.77;1.30;;;;;;;7.32;86.15;95238.27;1793996;80;21493;-69
2023/01/05 12:40:24;;;;;;;3.30;1.57;;;;;;;7.26;86.56;95258.91;1795546;80;20982;-70
2023/01/05 12:43:04;;;;;;;1.32;1.22;;;;;;;7.21;86.75;95274.28;1794248;80;21018;-69
2023/01/05 12:46:13;;;;;;;1.72;1.47;;;;;;;7.15;87.12;95271.25;1795451;80;21011;-69
2023/01/05 12:48:51;;;;;;;2.42;1.35;;;;;;;7.10;87.02;95283.09;1795651;80;21492;-69
2023/01/05 12:51:44;;;;;;;2.45;1.40;;;;;;;7.05;86.21;95274.41;1793533;80;21031;-69
2023/01/05 12:54:41;;;;;;;1.95;1.10;;;;;;;7.02;86.81;95276.20;1795722;80;20995;-69
2023/01/05 12:57:28;;;;;;;1.10;1.00;;;;;;;6.95;85.54;95280.63;1795149;80;21095;-69
2023/01/05 13:00:06;;;;;;;1.65;1.10;;;;;;;6.85;85.26;95284.23;1795392;80;20982;-69
2023/01/05 13:02:52;;;;;;;1.20;1.10;;;;;;;6.73;85.57;95283.92;1795627;80;21527;-70
2023/01/05 13:05:35;;;;;;;1.00;0.90;;;;;;;6.68;85.39;95283.09;1795172;80;21074;-69
2023/01/05 13:08:47;;;;;;;1.23;0.90;;;;;;;6.60;85.41;95286.19;1795398;80;21110;-69
2023/01/05 13:11:45;;;;;;;0.97;0.80;;;;;;;6.56;85.20;95276.19;1787992;80;21003;-69
2023/01/05 13:14:22;;;;;;;0.97;0.80;;;;;;;6.46;85.57;95261.42;1785803;80;21007;-69
2023/01/05 13:16:56;;;;;;;0.87;0.80;;;;;;;6.42;85.43;95263.62;1787168;80;21504;-69
2023/01/05 13:19:49;;;;;;;0.90;0.80;;;;;;;6.42;85.17;95247.89;1787108;80;21137;-69
2023/01/05 13:22:27;;;;;;;1.53;0.87;;;;;;;6.39;85.70;95230.89;1786994;80;21030;-69
2023/01/05 13:25:20;;;;;;;0.77;0.63;;;;;;;6.37;85.95;95224.80;1787096;80;21015;-69
2023/01/05 13:27:47;;;;;;;1.30;0.90;;;;;;;6.35;85.35;95237.92;1786333;80;21014;-69
2023/01/05 13:30:25;;;;;;;1.30;0.60;;;;;;;6.37;85.26;95254.92;1787120;80;21488;-69
2023/01/05 13:33:14;;;;;;;0.57;0.57;;;;;;;6.37;85.19;95253.17;1786674;80;21062;-69
2023/01/05 13:35:51;;;;;;;0.90;0.90;;;;;;;6.37;85.52;95252.30;1786192;80;21077;-69
2023/01/05 13:38:41;;;;;;;1.17;1.00;;;;;;;6.42;85.70;95222.55;1786675;80;21069;-69
2023/01/05 13:41:42;;;;;;;1.50;0.90;;;;;;;6.42;85.98;95238.27;1787085;80;21485;-69
2023/01/05 13:44:39;;;;;;;1.63;0.90;;;;;;;6.43;85.86;95248.34;1787381;80;20999;-69
2023/01/05 13:47:43;;;;;;;1.03;0.87;;;;;;;6.44;85.89;95274.97;1787366;80;21050;-69
2023/01/05 13:50:24;;;;;;;1.27;1.07;;;;;;;6.45;85.93;95254.41;1787347;80;21034;-69
2023/01/05 13:53:17;;;;;;;2.63;1.70;;;;;;;6.43;86.28;95247.89;1753668;80;21102;-69
2023/01/05 13:55:51;;;;;;;0.70;0.70;;;;;;;6.42;86.53;95235.66;1787069;80;21031;-69
2023/01/05 13:58:53;;;;;;;1.00;0.90;;;;;;;6.41;86.32;95247.03;1786812;80;21086;-69
2023/01/05 14:01:36;;;;;;;1.13;0.70;;;;;;;6.44;86.03;95252.24;1786536;80;21034;-69
2023/01/05 14:04:07;;;;;;;1.30;0.93;;;;;;;6.44;86.14;95250.93;1787152;80;21007;-69
2023/01/05 14:06:36;;;;;;;2.63;1.97;;;;;;;6.46;86.08;95232.14;1785432;80;21007;-69
2023/01/05 14:09:08;;;;;;;3.17;2.40;;;;;;;6.47;85.76;95215.52;1787163;80;21007;-69
2023/01/05 14:11:35;;;;;;;1.40;1.30;;;;;;;6.54;85.11;95235.14;1786757;80;21014;-69
2023/01/05 14:14:08;;;;;;;1.30;1.13;;;;;;;6.55;84.86;95231.20;1787223;80;21046;-69
2023/01/05 14:16:41;;;;;;;1.32;1.22;;;;;;;6.55;85.01;95256.11;1777024;80;20999;-69
2023/01/05 14:19:33;;;;;;;1.15;1.05;;;;;;;6.58;84.05;95235.11;1787288;80;21066;-69
2023/01/05 14:22:23;;;;;;;0.80;0.80;;;;;;;6.61;83.72;95252.11;1786614;80;21513;-69
2023/01/05 14:24:50;;;;;;;1.57;1.20;;;;;;;6.71;82.12;95259.45;1753934;80;21528;-69
2023/01/05 14:27:22;;;;;;;2.13;1.50;;;;;;;6.76;82.32;95264.22;1787059;80;21078;-69
2023/01/05 14:29:55;;;;;;;1.30;1.03;;;;;;;6.74;83.17;95262.49;1787269;80;21492;-69
2023/01/05 14:32:37;;;;;;;;;;;;;;;6.67;83.86;95273.47;1789887;80;21006;-69
2023/01/05 14:35:24;;;;;;;2.10;1.30;;;;;;;6.62;83.88;95278.74;1787046;80;20096;-69
2023/01/05 14:38:06;;;;;;;5.80;2.20;;;;;;;6.57;84.61;95280.98;1786880;80;20956;-69
2023/01/05 14:40:51;;;;;;;5.05;2.47;;;;;;;6.50;85.44;95308.56;1786899;80;21018;-69
2023/01/05 14:43:33;;;;;;;1.93;1.40;;;;;;;6.52;85.35;95302.42;1787208;80;21019;-69
2023/01/05 14:46:14;;;;;;;1.20;1.00;;;;;;;6.51;85.56;95305.50;1785820;80;21054;-69
2023/01/05 14:49:00;;;;;;;2.07;1.30;;;;;;;6.48;85.42;95298.97;1787372;80;21484;-69
2023/01/05 14:51:32;;;;;;;3.23;1.67;;;;;;;6.48;85.31;95276.69;1787221;80;21010;-69
2023/01/05 14:54:03;;;;;;;2.57;1.53;;;;;;;6.50;83.96;95240.83;1787375;80;20974;-69
2023/01/05 14:56:34;;;;;;;1.60;1.33;;;;;;;6.50;83.61;95235.59;1786862;80;21031;-69
2023/01/05 14:59:25;;;;;;;1.83;1.40;;;;;;;6.47;83.51;95261.83;1786699;80;21054;-69
2023/01/05 15:02:03;;;;;;;1.77;1.20;;;;;;;6.52;82.60;95263.97;1787398;80;21022;-69
2023/01/05 15:04:34;;;;;;;2.70;2.17;;;;;;;6.52;82.36;95272.28;1787322;80;21421;-69
2023/01/05 15:07:29;;;;;;;2.57;1.90;;;;;;;6.53;81.88;95264.84;1787189;80;21045;-69
2023/01/05 15:10:18;;;;;;;3.30;2.50;;;;;;;6.52;80.98;95309.84;1787373;80;20944;-69
2023/01/05 15:13:11;;;;;;;2.93;2.63;;;;;;;6.46;81.39;95314.70;1792911;80;21022;-69
2023/01/05 15:15:49;;;;;;;3.17;2.50;;;;;;;6.42;80.39;95310.80;1794866;80;21046;-69
2023/01/05 15:18:50;;;;;;;3.10;1.70;;;;;;;6.37;81.08;95305.58;1795719;80;21460;-69
2023/01/05 15:21:55;;;;;;;13.40;12.00;;;;;;;6.34;80.90;95296.44;1795340;80;21010;-69
2023/01/05 15:24:55;;;;;;;2.57;1.83;;;;;;;6.24;81.67;95296.93;1794129;80;21010;-69
2023/01/05 15:28:04;;;;;;;2.13;1.83;;;;;;;6.15;82.27;95231.52;1795551;80;20998;-69
2023/01/05 15:31:08;;;;;;;2.73;1.90;;;;;;;6.10;82.06;95251.64;1795613;80;20971;-69
2023/01/05 15:34:06;;;;;;;4.87;4.17;;;;;;;6.06;81.80;95242.92;1793713;80;21078;-69
2023/01/05 15:36:38;;;;;;;4.33;2.70;;;;;;;6.00;82.23;95244.28;1795144;80;21041;-68
2023/01/05 15:39:28;;;;;;;3.22;2.05;;;;;;;5.97;82.82;95239.48;1796087;80;21033;-69
2023/01/05 15:42:03;;;;;;;2.70;2.00;;;;;;;5.92;82.72;95237.30;1795063;80;21006;-68
2023/01/05 15:44:35;;;;;;;2.77;2.23;;;;;;;5.90;82.36;95225.55;1795313;80;21040;-69
2023/01/05 15:47:03;;;;;;;1.90;1.43;;;;;;;5.91;82.23;95242.12;1795616;80;21026;-69
2023/01/05 15:49:32;;;;;;;2.87;2.17;;;;;;;5.86;81.84;95249.55;1795529;80;20970;-69
2023/01/05 15:52:00;;;;;;;3.10;2.40;;;;;;;5.82;82.27;95285.82;1795008;80;21007;-68
2023/01/05 15:54:31;;;;;;;2.30;2.00;;;;;;;5.76;82.51;95296.75;1795394;80;21070;-69
2023/01/05 15:57:00;;;;;;;4.70;1.80;;;;;;;5.69;83.11;95297.20;1795599;80;21038;-69
2023/01/05 15:59:39;;;;;;;2.73;2.03;;;;;;;5.70;82.96;95318.59;1795488;80;21037;-69
2023/01/05 16:02:27;;;;;;;3.53;2.40;;;;;;;5.72;82.94;95323.80;1795395;80;21037;-69
2023/01/05 16:05:11;;;;;;;5.00;2.80;;;;;;;5.75;82.83;95332.98;1795588;80;21007;-69
2023/01/05 16:07:45;;;;;;;3.83;2.70;;;;;;;5.79;82.99;95344.72;1754437;80;20990;-69
2023/01/05 16:10:20;;;;;;;3.87;2.53;;;;;;;5.80;82.75;95341.23;1794004;80;21519;-69
2023/01/05 16:12:52;;;;;;;2.10;1.83;;;;;;;5.88;82.25;95347.75;1790525;80;20987;-69
2023/01/05 16:15:22;;;;;;;4.63;2.93;;;;;;;5.84;82.82;95349.49;1786961;80;21011;-69
2023/01/05 16:17:52;;;;;;;4.67;3.33;;;;;;;5.87;82.54;95345.98;1787284;80;21030;-69
2023/01/05 16:20:23;;;;;;;5.90;3.80;;;;;;;5.89;82.32;95345.55;1787235;80;21065;-69
2023/01/05 16:23:13;;;;;;;6.13;4.00;;;;;;;5.93;82.73;95351.66;1786967;80;21075;-69
2023/01/05 16:25:50;;;;;;;6.80;4.70;;;;;;;5.95;82.70;95361.73;1787260;80;21023;-69
2023/01/05 16:28:19;;;;;;;6.37;4.63;;;;;;;5.98;82.63;95353.86;1787258;80;20991;-69
2023/01/05 16:30:48;;;;;;;5.17;4.20;;;;;;;5.98;82.97;95356.47;1787039;80;21007;-69
2023/01/05 16:33:38;;;;;;;8.10;4.10;;;;;;;5.99;82.92;95369.54;1787135;80;21026;-69
2023/01/05 16:36:18;;;;;;;7.43;4.70;;;;;;;5.99;83.57;95365.61;1787398;80;20999;-69
2023/01/05 16:38:45;;;;;;;8.47;6.03;;;;;;;5.96;83.89;95360.39;1787110;80;21042;-69
2023/01/05 16:41:19;;;;;;;5.60;4.73;;;;;;;5.95;84.68;95359.98;1786808;80;21058;-68
2023/01/05 16:43:59;;;;;;;10.67;6.60;;;;;;;5.94;84.97;95362.59;1786888;80;21536;-69
2023/01/05 16:46:40;;;;;;;10.83;7.30;;;;;;;5.92;84.84;95368.23;1787138;80;20979;-69
2023/01/05 16:49:34;;;;;;;10.10;6.20;;;;;;;5.92;85.22;95369.13;1787243;80;21028;-69
2023/01/05 16:52:03;;;;;;;8.50;5.60;;;;;;;5.91;85.37;95369.98;1787108;80;21433;-69
2023/01/05 16:54:43;;;;;;;9.73;6.23;;;;;;;5.90;85.52;95378.73;1787132;80;21035;-69
2023/01/05 16:57:27;;;;;;;10.93;5.73;;;;;;;5.90;85.50;95368.27;1785671;80;21019;-69
2023/01/05 16:59:51;;;;;;;8.93;6.10;;;;;;;5.90;85.60;95368.27;1769851;80;21580;-69
2023/01/05 17:02:47;;;;;;;9.37;5.77;;;;;;;5.93;85.41;95373.92;1786830;80;21086;-69
2023/01/05 17:05:20;;;;;;;10.00;6.23;;;;;;;5.95;85.35;95373.07;1787124;80;20971;-69
2023/01/05 17:07:52;;;;;;;10.10;6.60;;;;;;;5.95;85.35;95373.52;1786980;80;21005;-69
2023/01/05 17:10:23;;;;;;;8.70;5.50;;;;;;;5.95;85.25;95364.35;1786721;80;20973;-69
2023/01/05 17:13:13;;;;;;;11.40;7.80;;;;;;;5.94;85.52;95375.23;1786079;80;21030;-69
2023/01/05 17:15:43;;;;;;;10.83;7.73;;;;;;;5.93;85.54;95358.21;1787093;80;21023;-69
2023/01/05 17:18:20;;;;;;;15.03;9.00;;;;;;;5.92;85.71;95360.38;1787047;80;21030;-69
2023/01/05 17:20:48;;;;;;;8.13;5.17;;;;;;;5.87;86.09;95352.53;1787030;80;21460;-69
2023/01/05 17:23:26;;;;;;;7.60;5.33;;;;;;;5.83;86.20;95354.31;1786789;80;21003;-69
2023/01/05 17:25:56;;;;;;;10.07;6.93;;;;;;;5.85;86.05;95368.72;1786829;80;21038;-69